sensor_id;sensor_type;location;lat;lon;timestamp;P1;durP1;ratioP1;P2;durP2;ratioP2
51515;SDS011;37603;55.614;37.326;2023-05-07T00:04:20;5.9;;;4.0;;
51515;SDS011;37603;55.614;37.326;2023-05-07T00:10:19;6.5;;;3.8;;
51515;SDS011;37603;55.614;37.326;2023-05-07T00:16:17;4.7;;;3.9;;
51515;SDS011;37603;55.614;37.326;2023-05-07T00:22:16;6.0;;;4.3;;
51515;SDS011;37603;55.614;37.326;2023-05-07T00:28:15;5.7;;;4.4;;
51515;SDS011;37603;55.614;37.326;2023-05-07T00:34:13;4.9;;;4.3;;
51515;SDS011;37603;55.614;37.326;2023-05-07T00:40:12;7.3;;;4.7;;
51515;SDS011;37603;55.614;37.326;2023-05-07T00:46:11;6.3;;;5.1;;
51515;SDS011;37603;55.614;37.326;2023-05-07T00:52:12;6.6;;;4.6;;
51515;SDS011;37603;55.614;37.326;2023-05-07T00:58:08;6.3;;;4.6;;
51515;SDS011;37603;55.614;37.326;2023-05-07T01:04:07;7.2;;;4.8;;
51515;SDS011;37603;55.614;37.326;2023-05-07T01:10:05;5.4;;;4.8;;
51515;SDS011;37603;55.614;37.326;2023-05-07T01:16:04;5.1;;;2.6;;
51515;SDS011;37603;55.614;37.326;2023-05-07T01:22:03;6.9;;;4.6;;
51515;SDS011;37603;55.614;37.326;2023-05-07T01:28:01;6.1;;;4.8;;
51515;SDS011;37603;55.614;37.326;2023-05-07T01:34:00;6.4;;;4.7;;
51515;SDS011;37603;55.614;37.326;2023-05-07T01:39:58;6.7;;;5.3;;
51515;SDS011;37603;55.614;37.326;2023-05-07T01:45:57;7.5;;;5.4;;
51515;SDS011;37603;55.614;37.326;2023-05-07T01:51:55;6.4;;;5.2;;
51515;SDS011;37603;55.614;37.326;2023-05-07T01:57:54;6.3;;;5.5;;
51515;SDS011;37603;55.614;37.326;2023-05-07T02:03:52;7.9;;;5.6;;
51515;SDS011;37603;55.614;37.326;2023-05-07T02:09:51;6.1;;;5.5;;
51515;SDS011;37603;55.614;37.326;2023-05-07T02:15:49;5.2;;;2.6;;
51515;SDS011;37603;55.614;37.326;2023-05-07T02:21:48;7.1;;;5.9;;
51515;SDS011;37603;55.614;37.326;2023-05-07T02:27:46;8.2;;;6.2;;
51515;SDS011;37603;55.614;37.326;2023-05-07T02:33:45;10.1;;;7.5;;
51515;SDS011;37603;55.614;37.326;2023-05-07T02:39:43;7.1;;;3.4;;
51515;SDS011;37603;55.614;37.326;2023-05-07T02:45:42;10.0;;;8.1;;
51515;SDS011;37603;55.614;37.326;2023-05-07T02:51:41;7.7;;;6.9;;
51515;SDS011;37603;55.614;37.326;2023-05-07T02:57:39;9.9;;;7.2;;
51515;SDS011;37603;55.614;37.326;2023-05-07T03:03:38;13.2;;;8.4;;
51515;SDS011;37603;55.614;37.326;2023-05-07T03:09:36;9.2;;;6.1;;
51515;SDS011;37603;55.614;37.326;2023-05-07T03:15:35;7.3;;;5.0;;
51515;SDS011;37603;55.614;37.326;2023-05-07T03:21:33;6.1;;;4.9;;
51515;SDS011;37603;55.614;37.326;2023-05-07T03:27:32;6.6;;;4.6;;
51515;SDS011;37603;55.614;37.326;2023-05-07T03:39:29;4.1;;;3.7;;
51515;SDS011;37603;55.614;37.326;2023-05-07T03:45:28;5.7;;;3.9;;
51515;SDS011;37603;55.614;37.326;2023-05-07T03:51:26;4.8;;;3.6;;
51515;SDS011;37603;55.614;37.326;2023-05-07T03:57:25;4.6;;;3.5;;
51515;SDS011;37603;55.614;37.326;2023-05-07T04:03:24;6.5;;;3.7;;
51515;SDS011;37603;55.614;37.326;2023-05-07T04:09:22;4.2;;;3.5;;
51515;SDS011;37603;55.614;37.326;2023-05-07T04:15:21;5.2;;;3.3;;
51515;SDS011;37603;55.614;37.326;2023-05-07T04:33:17;3.6;;;3.2;;
51515;SDS011;37603;55.614;37.326;2023-05-07T04:39:16;5.3;;;3.2;;
51515;SDS011;37603;55.614;37.326;2023-05-07T04:45:14;4.8;;;3.5;;
51515;SDS011;37603;55.614;37.326;2023-05-07T04:51:13;4.0;;;3.2;;
51515;SDS011;37603;55.614;37.326;2023-05-07T04:57:12;5.3;;;3.1;;
51515;SDS011;37603;55.614;37.326;2023-05-07T05:09:09;4.9;;;3.2;;
51515;SDS011;37603;55.614;37.326;2023-05-07T05:15:08;4.0;;;2.7;;
51515;SDS011;37603;55.614;37.326;2023-05-07T05:21:07;4.2;;;2.5;;
51515;SDS011;37603;55.614;37.326;2023-05-07T05:27:05;3.6;;;2.6;;
51515;SDS011;37603;55.614;37.326;2023-05-07T05:33:04;3.7;;;2.3;;
51515;SDS011;37603;55.614;37.326;2023-05-07T05:39:03;10.6;;;3.0;;
51515;SDS011;37603;55.614;37.326;2023-05-07T05:45:02;3.4;;;2.5;;
51515;SDS011;37603;55.614;37.326;2023-05-07T05:51:01;3.1;;;2.3;;
51515;SDS011;37603;55.614;37.326;2023-05-07T05:56:59;3.8;;;2.0;;
51515;SDS011;37603;55.614;37.326;2023-05-07T06:02:58;2.8;;;2.0;;
51515;SDS011;37603;55.614;37.326;2023-05-07T06:08:57;3.9;;;2.6;;
51515;SDS011;37603;55.614;37.326;2023-05-07T06:14:56;2.7;;;1.6;;
51515;SDS011;37603;55.614;37.326;2023-05-07T06:20:55;3.4;;;1.7;;
51515;SDS011;37603;55.614;37.326;2023-05-07T06:26:53;3.3;;;1.8;;
51515;SDS011;37603;55.614;37.326;2023-05-07T06:32:52;3.6;;;1.5;;
51515;SDS011;37603;55.614;37.326;2023-05-07T06:38:51;3.3;;;1.6;;
51515;SDS011;37603;55.614;37.326;2023-05-07T06:44:50;3.2;;;1.7;;
51515;SDS011;37603;55.614;37.326;2023-05-07T06:50:49;2.1;;;1.5;;
51515;SDS011;37603;55.614;37.326;2023-05-07T07:02:46;3.1;;;1.4;;
51515;SDS011;37603;55.614;37.326;2023-05-07T07:08:45;1.5;;;1.1;;
51515;SDS011;37603;55.614;37.326;2023-05-07T07:14:44;1.2;;;1.1;;
51515;SDS011;37603;55.614;37.326;2023-05-07T07:20:43;1.6;;;1.2;;
51515;SDS011;37603;55.614;37.326;2023-05-07T07:26:42;2.3;;;1.2;;
51515;SDS011;37603;55.614;37.326;2023-05-07T07:32:41;1.4;;;1.3;;
51515;SDS011;37603;55.614;37.326;2023-05-07T07:38:40;3.1;;;1.2;;
51515;SDS011;37603;55.614;37.326;2023-05-07T07:44:38;4.4;;;1.4;;
51515;SDS011;37603;55.614;37.326;2023-05-07T07:50:37;2.4;;;1.5;;
51515;SDS011;37603;55.614;37.326;2023-05-07T07:56:36;3.5;;;1.4;;
51515;SDS011;37603;55.614;37.326;2023-05-07T08:02:35;2.2;;;1.5;;
51515;SDS011;37603;55.614;37.326;2023-05-07T08:14:33;2.5;;;0.9;;
51515;SDS011;37603;55.614;37.326;2023-05-07T08:20:32;2.2;;;1.1;;
51515;SDS011;37603;55.614;37.326;2023-05-07T08:26:31;2.4;;;1.4;;
51515;SDS011;37603;55.614;37.326;2023-05-07T08:32:30;3.8;;;1.2;;
51515;SDS011;37603;55.614;37.326;2023-05-07T08:38:28;1.9;;;1.3;;
51515;SDS011;37603;55.614;37.326;2023-05-07T08:44:27;3.1;;;1.2;;
51515;SDS011;37603;55.614;37.326;2023-05-07T08:50:26;3.0;;;1.3;;
51515;SDS011;37603;55.614;37.326;2023-05-07T08:56:25;1.8;;;1.4;;
51515;SDS011;37603;55.614;37.326;2023-05-07T09:02:24;1.5;;;1.3;;
51515;SDS011;37603;55.614;37.326;2023-05-07T09:08:24;3.4;;;1.4;;
51515;SDS011;37603;55.614;37.326;2023-05-07T09:14:22;1.8;;;1.3;;
51515;SDS011;37603;55.614;37.326;2023-05-07T09:20:21;3.9;;;1.4;;
51515;SDS011;37603;55.614;37.326;2023-05-07T09:26:20;2.7;;;1.3;;
51515;SDS011;37603;55.614;37.326;2023-05-07T09:32:19;1.8;;;1.3;;
51515;SDS011;37603;55.614;37.326;2023-05-07T09:38:17;1.1;;;1.0;;
51515;SDS011;37603;55.614;37.326;2023-05-07T09:44:16;3.7;;;1.2;;
51515;SDS011;37603;55.614;37.326;2023-05-07T09:50:16;2.4;;;1.5;;
51515;SDS011;37603;55.614;37.326;2023-05-07T09:56:14;2.8;;;1.4;;
51515;SDS011;37603;55.614;37.326;2023-05-07T10:02:13;2.0;;;1.3;;
51515;SDS011;37603;55.614;37.326;2023-05-07T10:08:12;1.3;;;1.2;;
51515;SDS011;37603;55.614;37.326;2023-05-07T10:14:11;2.6;;;1.2;;
51515;SDS011;37603;55.614;37.326;2023-05-07T10:20:10;3.2;;;1.2;;
51515;SDS011;37603;55.614;37.326;2023-05-07T10:26:09;2.0;;;1.1;;
51515;SDS011;37603;55.614;37.326;2023-05-07T10:32:12;2.7;;;2.2;;
51515;SDS011;37603;55.614;37.326;2023-05-07T10:38:07;2.6;;;1.6;;
51515;SDS011;37603;55.614;37.326;2023-05-07T10:44:06;3.3;;;1.8;;
51515;SDS011;37603;55.614;37.326;2023-05-07T11:02:03;1.3;;;1.2;;
51515;SDS011;37603;55.614;37.326;2023-05-07T11:08:02;2.6;;;1.3;;
51515;SDS011;37603;55.614;37.326;2023-05-07T11:14:00;2.3;;;1.4;;
51515;SDS011;37603;55.614;37.326;2023-05-07T11:25:58;2.8;;;1.5;;
51515;SDS011;37603;55.614;37.326;2023-05-07T11:31:57;1.6;;;1.3;;
51515;SDS011;37603;55.614;37.326;2023-05-07T11:37:57;1.8;;;1.4;;
51515;SDS011;37603;55.614;37.326;2023-05-07T11:43:56;2.9;;;1.4;;
51515;SDS011;37603;55.614;37.326;2023-05-07T11:49:54;2.7;;;1.4;;
51515;SDS011;37603;55.614;37.326;2023-05-07T11:55:54;1.6;;;1.2;;
51515;SDS011;37603;55.614;37.326;2023-05-07T12:01:55;3.0;;;1.4;;
51515;SDS011;37603;55.614;37.326;2023-05-07T12:07:55;8.3;;;4.9;;
51515;SDS011;37603;55.614;37.326;2023-05-07T12:13:50;2.7;;;1.6;;
51515;SDS011;37603;55.614;37.326;2023-05-07T12:19:49;3.0;;;2.2;;
51515;SDS011;37603;55.614;37.326;2023-05-07T12:25:48;2.5;;;1.5;;
51515;SDS011;37603;55.614;37.326;2023-05-07T12:31:47;3.2;;;1.6;;
51515;SDS011;37603;55.614;37.326;2023-05-07T12:37:54;2.0;;;1.5;;
51515;SDS011;37603;55.614;37.326;2023-05-07T12:43:45;6.9;;;4.8;;
51515;SDS011;37603;55.614;37.326;2023-05-07T12:49:44;2.7;;;1.4;;
51515;SDS011;37603;55.614;37.326;2023-05-07T12:55:43;2.9;;;1.2;;
51515;SDS011;37603;55.614;37.326;2023-05-07T13:01:43;4.0;;;1.2;;
51515;SDS011;37603;55.614;37.326;2023-05-07T13:07:41;2.3;;;1.5;;
51515;SDS011;37603;55.614;37.326;2023-05-07T13:13:40;3.2;;;1.4;;
51515;SDS011;37603;55.614;37.326;2023-05-07T13:19:39;3.4;;;1.5;;
51515;SDS011;37603;55.614;37.326;2023-05-07T13:25:38;1.9;;;1.4;;
51515;SDS011;37603;55.614;37.326;2023-05-07T13:31:36;3.8;;;1.6;;
51515;SDS011;37603;55.614;37.326;2023-05-07T13:37:35;2.6;;;1.7;;
51515;SDS011;37603;55.614;37.326;2023-05-07T13:43:34;2.3;;;1.3;;
51515;SDS011;37603;55.614;37.326;2023-05-07T13:49:33;3.2;;;1.6;;
51515;SDS011;37603;55.614;37.326;2023-05-07T13:55:32;3.0;;;1.4;;
51515;SDS011;37603;55.614;37.326;2023-05-07T14:01:31;2.8;;;1.3;;
51515;SDS011;37603;55.614;37.326;2023-05-07T14:07:30;3.3;;;1.4;;
51515;SDS011;37603;55.614;37.326;2023-05-07T14:19:28;4.0;;;2.0;;
51515;SDS011;37603;55.614;37.326;2023-05-07T14:25:27;3.2;;;1.5;;
51515;SDS011;37603;55.614;37.326;2023-05-07T14:31:26;2.2;;;1.4;;
51515;SDS011;37603;55.614;37.326;2023-05-07T14:37:25;4.0;;;1.5;;
51515;SDS011;37603;55.614;37.326;2023-05-07T14:43:24;62.7;;;28.2;;
51515;SDS011;37603;55.614;37.326;2023-05-07T14:49:23;2.0;;;1.3;;
51515;SDS011;37603;55.614;37.326;2023-05-07T14:55:23;2.2;;;1.5;;
51515;SDS011;37603;55.614;37.326;2023-05-07T15:01:21;4.6;;;2.2;;
51515;SDS011;37603;55.614;37.326;2023-05-07T15:07:20;5.9;;;3.8;;
51515;SDS011;37603;55.614;37.326;2023-05-07T15:13:19;3.9;;;1.5;;
51515;SDS011;37603;55.614;37.326;2023-05-07T15:19:18;3.6;;;1.6;;
51515;SDS011;37603;55.614;37.326;2023-05-07T15:25:17;2.4;;;1.6;;
51515;SDS011;37603;55.614;37.326;2023-05-07T15:31:16;3.4;;;2.1;;
51515;SDS011;37603;55.614;37.326;2023-05-07T15:37:15;2.1;;;1.6;;
51515;SDS011;37603;55.614;37.326;2023-05-07T15:43:15;3.8;;;1.3;;
51515;SDS011;37603;55.614;37.326;2023-05-07T15:49:13;3.0;;;1.4;;
51515;SDS011;37603;55.614;37.326;2023-05-07T15:55:13;2.7;;;1.3;;
51515;SDS011;37603;55.614;37.326;2023-05-07T16:01:11;2.5;;;1.5;;
51515;SDS011;37603;55.614;37.326;2023-05-07T16:07:11;2.0;;;1.5;;
51515;SDS011;37603;55.614;37.326;2023-05-07T16:13:09;2.3;;;1.5;;
51515;SDS011;37603;55.614;37.326;2023-05-07T16:19:09;5.3;;;3.8;;
51515;SDS011;37603;55.614;37.326;2023-05-07T16:25:08;3.1;;;1.5;;
51515;SDS011;37603;55.614;37.326;2023-05-07T16:31:07;4.1;;;2.6;;
51515;SDS011;37603;55.614;37.326;2023-05-07T16:37:05;2.2;;;1.4;;
51515;SDS011;37603;55.614;37.326;2023-05-07T16:43:04;3.1;;;2.0;;
51515;SDS011;37603;55.614;37.326;2023-05-07T16:49:03;3.8;;;2.2;;
51515;SDS011;37603;55.614;37.326;2023-05-07T16:55:03;2.7;;;1.7;;
51515;SDS011;37603;55.614;37.326;2023-05-07T17:01:01;4.4;;;3.1;;
51515;SDS011;37603;55.614;37.326;2023-05-07T17:07:00;5.8;;;2.3;;
51515;SDS011;37603;55.614;37.326;2023-05-07T17:12:59;5.9;;;2.3;;
51515;SDS011;37603;55.614;37.326;2023-05-07T17:18:58;4.1;;;2.8;;
51515;SDS011;37603;55.614;37.326;2023-05-07T17:24:57;3.9;;;2.8;;
51515;SDS011;37603;55.614;37.326;2023-05-07T17:30:56;4.2;;;3.2;;
51515;SDS011;37603;55.614;37.326;2023-05-07T17:36:55;9.4;;;4.4;;
51515;SDS011;37603;55.614;37.326;2023-05-07T17:42:54;6.8;;;3.8;;
51515;SDS011;37603;55.614;37.326;2023-05-07T17:48:53;18.6;;;11.7;;
51515;SDS011;37603;55.614;37.326;2023-05-07T17:54:52;11.5;;;7.4;;
51515;SDS011;37603;55.614;37.326;2023-05-07T18:00:52;8.9;;;5.4;;
51515;SDS011;37603;55.614;37.326;2023-05-07T18:06:50;12.0;;;6.9;;
51515;SDS011;37603;55.614;37.326;2023-05-07T18:12:49;8.5;;;5.3;;
51515;SDS011;37603;55.614;37.326;2023-05-07T18:18:47;10.7;;;7.0;;
51515;SDS011;37603;55.614;37.326;2023-05-07T18:24:46;10.4;;;6.1;;
51515;SDS011;37603;55.614;37.326;2023-05-07T18:30:45;10.1;;;5.6;;
51515;SDS011;37603;55.614;37.326;2023-05-07T18:36:44;7.9;;;5.2;;
51515;SDS011;37603;55.614;37.326;2023-05-07T18:42:43;6.8;;;4.6;;
51515;SDS011;37603;55.614;37.326;2023-05-07T18:48:42;12.2;;;6.5;;
51515;SDS011;37603;55.614;37.326;2023-05-07T18:54:41;18.6;;;9.7;;
51515;SDS011;37603;55.614;37.326;2023-05-07T19:00:39;9.2;;;5.9;;
51515;SDS011;37603;55.614;37.326;2023-05-07T19:06:38;10.1;;;5.3;;
51515;SDS011;37603;55.614;37.326;2023-05-07T19:12:37;8.3;;;5.1;;
51515;SDS011;37603;55.614;37.326;2023-05-07T19:18:36;26.9;;;15.5;;
51515;SDS011;37603;55.614;37.326;2023-05-07T19:24:34;24.0;;;15.3;;
51515;SDS011;37603;55.614;37.326;2023-05-07T19:30:33;80.7;;;45.9;;
51515;SDS011;37603;55.614;37.326;2023-05-07T19:36:32;28.9;;;17.3;;
51515;SDS011;37603;55.614;37.326;2023-05-07T19:42:31;27.4;;;16.4;;
51515;SDS011;37603;55.614;37.326;2023-05-07T19:48:29;25.1;;;14.5;;
51515;SDS011;37603;55.614;37.326;2023-05-07T19:54:28;28.8;;;16.4;;
51515;SDS011;37603;55.614;37.326;2023-05-07T20:00:27;49.3;;;28.3;;
51515;SDS011;37603;55.614;37.326;2023-05-07T20:06:25;44.7;;;26.9;;
51515;SDS011;37603;55.614;37.326;2023-05-07T20:12:24;29.2;;;17.9;;
51515;SDS011;37603;55.614;37.326;2023-05-07T20:18:23;24.1;;;14.9;;
51515;SDS011;37603;55.614;37.326;2023-05-07T20:24:22;25.4;;;14.5;;
51515;SDS011;37603;55.614;37.326;2023-05-07T20:30:20;24.6;;;14.3;;
51515;SDS011;37603;55.614;37.326;2023-05-07T20:36:19;31.2;;;16.6;;
51515;SDS011;37603;55.614;37.326;2023-05-07T20:42:18;40.0;;;21.5;;
51515;SDS011;37603;55.614;37.326;2023-05-07T20:48:16;54.8;;;28.4;;
51515;SDS011;37603;55.614;37.326;2023-05-07T20:54:15;87.5;;;41.9;;
51515;SDS011;37603;55.614;37.326;2023-05-07T21:00:14;62.9;;;30.8;;
51515;SDS011;37603;55.614;37.326;2023-05-07T21:06:12;102.4;;;47.6;;
51515;SDS011;37603;55.614;37.326;2023-05-07T21:12:11;233.9;;;103.7;;
51515;SDS011;37603;55.614;37.326;2023-05-07T21:18:10;114.6;;;54.2;;
51515;SDS011;37603;55.614;37.326;2023-05-07T21:24:08;79.8;;;40.1;;
51515;SDS011;37603;55.614;37.326;2023-05-07T21:30:08;63.2;;;34.3;;
51515;SDS011;37603;55.614;37.326;2023-05-07T21:36:06;41.4;;;23.2;;
51515;SDS011;37603;55.614;37.326;2023-05-07T21:42:04;34.3;;;19.4;;
51515;SDS011;37603;55.614;37.326;2023-05-07T21:48:03;29.9;;;16.4;;
51515;SDS011;37603;55.614;37.326;2023-05-07T21:54:02;34.6;;;19.4;;
51515;SDS011;37603;55.614;37.326;2023-05-07T22:00:00;31.6;;;18.1;;
51515;SDS011;37603;55.614;37.326;2023-05-07T22:05:59;28.4;;;17.4;;
51515;SDS011;37603;55.614;37.326;2023-05-07T22:11:58;28.1;;;16.2;;
51515;SDS011;37603;55.614;37.326;2023-05-07T22:23:55;33.8;;;19.7;;
51515;SDS011;37603;55.614;37.326;2023-05-07T22:29:54;54.0;;;31.7;;
51515;SDS011;37603;55.614;37.326;2023-05-07T22:35:52;44.9;;;27.5;;
51515;SDS011;37603;55.614;37.326;2023-05-07T22:41:51;31.2;;;18.7;;
51515;SDS011;37603;55.614;37.326;2023-05-07T22:47:50;34.3;;;19.5;;
51515;SDS011;37603;55.614;37.326;2023-05-07T22:53:48;31.8;;;18.8;;
51515;SDS011;37603;55.614;37.326;2023-05-07T22:59:47;27.3;;;15.6;;
51515;SDS011;37603;55.614;37.326;2023-05-07T23:05:45;25.4;;;14.7;;
51515;SDS011;37603;55.614;37.326;2023-05-07T23:11:44;21.8;;;14.6;;
51515;SDS011;37603;55.614;37.326;2023-05-07T23:17:43;21.0;;;13.7;;
51515;SDS011;37603;55.614;37.326;2023-05-07T23:23:41;22.6;;;14.0;;
51515;SDS011;37603;55.614;37.326;2023-05-07T23:29:40;23.2;;;15.2;;
51515;SDS011;37603;55.614;37.326;2023-05-07T23:35:39;22.1;;;14.4;;
51515;SDS011;37603;55.614;37.326;2023-05-07T23:41:37;24.8;;;16.4;;
51515;SDS011;37603;55.614;37.326;2023-05-07T23:47:36;28.6;;;17.9;;
51515;SDS011;37603;55.614;37.326;2023-05-07T23:53:34;25.5;;;16.9;;
51515;SDS011;37603;55.614;37.326;2023-05-07T23:59:33;22.4;;;16.3;;
